Time;durP1;ratioP1;P1;durP2;ratioP2;P2;SDS_P1;SDS_P2;PMS_P1;PMS_P2;Temp;Humidity;BMP_temperature;BMP_pressure;BME280_temperature;BME280_humidity;BME280_pressure;Samples;Min_cycle;Max_cycle;Signal;HPM_P1;HPM_P2
2023/08/09 00:00:36;;;;;;;;;1.40;1.00;;;;;15.02;76.73;99401.16;4977629;28;8833;-60
2023/08/09 00:03:05;;;;;;;;;1.00;0.60;;;;;15.02;76.63;99403.81;4978280;28;8844;-60
2023/08/09 00:05:32;;;;;;;;;0.20;0.20;;;;;15.04;77.17;99402.66;4978058;28;8841;-59
2023/08/09 00:08:00;;;;;;;;;0.00;0.00;;;;;15.06;76.46;99405.16;4978356;28;8869;-60
2023/08/09 00:10:28;;;;;;;;;0.00;0.00;;;;;15.06;77.01;99399.78;4977915;28;8832;-59
2023/08/09 00:12:56;;;;;;;;;0.00;0.00;;;;;15.07;77.08;99407.69;4977871;28;8931;-60
2023/08/09 00:15:24;;;;;;;;;0.20;0.20;;;;;15.09;76.73;99410.22;4977651;28;8844;-61
2023/08/09 00:17:51;;;;;;;;;0.60;0.20;;;;;15.11;77.10;99418.94;4977863;28;8867;-59
2023/08/09 00:20:20;;;;;;;;;1.00;0.20;;;;;15.13;76.72;99430.31;4977630;28;9504;-59
2023/08/09 00:22:48;;;;;;;;;0.00;0.00;;;;;15.19;76.53;99437.72;4977556;28;8816;-60
2023/08/09 00:25:17;;;;;;;;;0.40;0.40;;;;;15.17;76.79;99439.75;4977677;28;8847;-60
2023/08/09 00:27:45;;;;;;;;;0.00;0.00;;;;;15.07;77.63;99430.97;4977786;28;8959;-61
2023/08/09 00:30:14;;;;;;;;;0.00;0.00;;;;;15.00;77.38;99446.88;4977864;28;8833;-60
2023/08/09 00:32:41;;;;;;;;;0.00;0.00;;;;;14.95;77.83;99443.00;4977610;28;8955;-60
2023/08/09 00:35:09;;;;;;;;;0.00;0.00;;;;;14.91;77.89;99444.31;4977488;28;8947;-60
2023/08/09 00:37:37;;;;;;;;;0.00;0.00;;;;;14.88;78.06;99450.03;4976367;28;8902;-61
2023/08/09 00:40:07;;;;;;;;;0.20;0.20;;;;;14.84;77.98;99454.00;4957542;28;8827;-60
2023/08/09 00:42:34;;;;;;;;;0.00;0.00;;;;;14.81;78.36;99462.38;4958442;28;8957;-60
2023/08/09 00:45:03;;;;;;;;;0.40;0.00;;;;;14.79;78.14;99469.75;4958236;28;9528;-60
2023/08/09 00:47:32;;;;;;;;;0.00;0.00;;;;;14.77;78.06;99463.69;4958616;28;9638;-58
2023/08/09 00:50:00;;;;;;;;;0.00;0.00;;;;;14.75;77.70;99465.69;4976844;28;8813;-60
2023/08/09 00:52:27;;;;;;;;;0.00;0.00;;;;;14.74;78.10;99469.38;4977501;28;8836;-59
2023/08/09 00:54:55;;;;;;;;;0.00;0.00;;;;;14.72;78.58;99460.69;4977239;28;8828;-61
2023/08/09 00:57:22;;;;;;;;;0.00;0.00;;;;;14.71;78.14;99475.91;4977560;28;8831;-60
2023/08/09 00:59:50;;;;;;;;;0.00;0.00;;;;;14.70;78.34;99484.09;4976822;28;8833;-61
2023/08/09 01:02:18;;;;;;;;;0.00;0.00;;;;;14.66;78.62;99485.44;4977033;28;8833;-60
2023/08/09 01:04:45;;;;;;;;;0.00;0.00;;;;;14.65;78.20;99491.78;4976618;28;8955;-59
2023/08/09 01:07:13;;;;;;;;;0.00;0.00;;;;;14.62;78.52;99490.25;4977228;28;8825;-60
2023/08/09 01:09:41;;;;;;;;;0.00;0.00;;;;;14.63;78.48;99494.63;4977604;28;9479;-60
2023/08/09 01:12:08;;;;;;;;;0.00;0.00;;;;;14.63;78.71;99501.84;4977035;28;8848;-60
2023/08/09 01:14:36;;;;;;;;;0.00;0.00;;;;;14.63;78.77;99499.16;4977134;28;8821;-61
2023/08/09 01:17:04;;;;;;;;;0.00;0.00;;;;;14.64;78.58;99506.19;4977055;28;9510;-60
2023/08/09 01:19:32;;;;;;;;;0.00;0.00;;;;;14.62;78.81;99500.13;4976610;28;8825;-60
2023/08/09 01:21:59;;;;;;;;;0.40;0.20;;;;;14.62;78.26;99502.81;4977004;28;8840;-59
2023/08/09 01:24:27;;;;;;;;;0.00;0.00;;;;;14.60;78.88;99499.44;4977030;28;9817;-60
2023/08/09 01:26:55;;;;;;;;;0.00;0.00;;;;;14.58;78.35;99498.78;4976874;28;8837;-60
2023/08/09 01:29:22;;;;;;;;;0.00;0.00;;;;;14.56;78.83;99496.25;4976388;28;8813;-59
2023/08/09 01:31:50;;;;;;;;;0.00;0.00;;;;;14.53;79.00;99499.25;4976992;28;8843;-61
2023/08/09 01:34:18;;;;;;;;;0.00;0.00;;;;;14.53;79.02;99498.41;4976454;28;8852;-59
2023/08/09 01:36:46;;;;;;;;;0.00;0.00;;;;;14.53;78.91;99503.75;4976769;28;9595;-59
2023/08/09 01:39:14;;;;;;;;;0.00;0.00;;;;;14.56;79.04;99492.75;4976403;28;8825;-61
2023/08/09 01:41:42;;;;;;;;;0.00;0.00;;;;;14.58;78.99;99504.13;4976132;28;8823;-60
2023/08/09 01:44:11;;;;;;;;;0.00;0.00;;;;;14.60;78.92;99503.00;4976275;28;8899;-60
2023/08/09 01:46:39;;;;;;;;;0.00;0.00;;;;;14.61;78.08;99510.03;4976192;28;8828;-59
2023/08/09 01:49:07;;;;;;;;;0.00;0.00;;;;;14.61;78.76;99498.44;4976637;28;8862;-61
2023/08/09 01:51:35;;;;;;;;;0.00;0.00;;;;;14.60;78.38;99494.09;4976725;28;8820;-59
2023/08/09 01:54:03;;;;;;;;;0.60;0.60;;;;;14.58;78.41;99506.81;4979787;28;8956;-59
2023/08/09 01:56:31;;;;;;;;;0.00;0.00;;;;;14.55;78.60;99512.47;4980528;28;8837;-61
2023/08/09 01:58:58;;;;;;;;;1.00;1.00;;;;;14.54;78.84;99510.78;4980234;28;8817;-61
2023/08/09 02:01:26;;;;;;;;;1.00;1.00;;;;;14.52;78.46;99502.09;4980225;28;8871;-61
2023/08/09 02:03:54;;;;;;;;;0.40;0.40;;;;;14.51;78.38;99506.59;4979557;28;8817;-60
2023/08/09 02:06:21;;;;;;;;;0.00;0.00;;;;;14.50;78.77;99504.09;4979801;28;8836;-58
2023/08/09 02:08:49;;;;;;;;;0.00;0.00;;;;;14.47;78.73;99510.59;4979515;28;8840;-59
2023/08/09 02:11:17;;;;;;;;;0.00;0.00;;;;;14.46;79.15;99534.84;4980133;28;8843;-60
2023/08/09 02:13:44;;;;;;;;;0.00;0.00;;;;;14.43;78.64;99535.19;4980362;28;8850;-60
2023/08/09 02:16:12;;;;;;;;;0.60;0.60;;;;;14.41;78.87;99542.53;4980419;28;8828;-60
2023/08/09 02:18:40;;;;;;;;;1.40;1.40;;;;;14.40;79.34;99541.69;4979841;28;8825;-59
2023/08/09 02:21:07;;;;;;;;;0.00;0.00;;;;;14.40;79.21;99538.16;4979983;28;8956;-61
2023/08/09 02:23:35;;;;;;;;;1.00;1.00;;;;;14.39;78.72;99540.00;4980030;28;8829;-60
2023/08/09 02:26:03;;;;;;;;;0.00;0.00;;;;;14.41;79.33;99553.25;4979893;28;8860;-59
2023/08/09 02:28:32;;;;;;;;;0.80;0.80;;;;;14.39;79.04;99549.88;4979695;28;8816;-61
2023/08/09 02:30:59;;;;;;;;;0.00;0.00;;;;;14.37;78.82;99547.38;4979751;28;8947;-59
2023/08/09 02:33:27;;;;;;;;;0.40;0.40;;;;;14.36;78.87;99545.66;4979986;28;8850;-59
2023/08/09 02:35:55;;;;;;;;;1.00;0.20;;;;;14.36;79.05;99544.84;4979391;28;8847;-59
2023/08/09 02:38:23;;;;;;;;;1.00;1.00;;;;;14.35;79.09;99538.63;4979338;28;8848;-61
2023/08/09 02:40:51;;;;;;;;;1.00;1.00;;;;;14.37;79.07;99530.44;4979345;28;8976;-59
2023/08/09 02:43:18;;;;;;;;;0.00;0.00;;;;;14.37;79.49;99536.66;4979620;28;8865;-61
2023/08/09 02:45:46;;;;;;;;;1.00;0.00;;;;;14.38;79.29;99535.66;4979608;28;8832;-59
2023/08/09 02:48:13;;;;;;;;;0.40;0.40;;;;;14.40;79.09;99547.06;4978650;28;8950;-60
2023/08/09 02:50:42;;;;;;;;;0.80;0.00;;;;;14.41;79.07;99545.22;4978811;28;8823;-59
2023/08/09 02:53:10;;;;;;;;;0.40;0.40;;;;;14.40;79.29;99546.19;4979779;28;8837;-59
2023/08/09 02:55:37;;;;;;;;;1.00;0.20;;;;;14.38;79.33;99542.84;4979443;28;8836;-59
2023/08/09 02:58:05;;;;;;;;;0.60;0.60;;;;;14.35;78.90;99556.56;4979208;28;8835;-59
2023/08/09 03:00:33;;;;;;;;;0.20;0.20;;;;;14.33;79.04;99562.06;4979756;28;8836;-59
2023/08/09 03:03:04;;;;;;;;;0.75;0.75;;;;;14.34;79.31;99562.91;4979681;28;8963;-60
2023/08/09 03:05:32;;;;;;;;;0.00;0.00;;;;;14.33;78.97;99564.72;4979249;28;8809;-59
2023/08/09 03:08:00;;;;;;;;;1.00;0.25;;;;;14.34;78.99;99573.63;4979057;28;8857;-59
2023/08/09 03:10:27;;;;;;;;;1.00;1.00;;;;;14.34;78.89;99573.63;4978363;28;8936;-60
2023/08/09 03:12:55;;;;;;;;;1.00;1.00;;;;;14.30;79.11;99561.53;4978768;28;8964;-59
2023/08/09 03:15:23;;;;;;;;;1.00;1.00;;;;;14.25;79.63;99562.00;4979220;28;8832;-59
2023/08/09 03:17:51;;;;;;;;;1.00;1.00;;;;;14.22;79.79;99561.47;4978565;28;8848;-61
2023/08/09 03:20:19;;;;;;;;;2.60;2.20;;;;;14.21;79.72;99568.63;4978108;28;8888;-61
2023/08/09 03:22:48;;;;;;;;;1.00;1.00;;;;;14.22;79.72;99569.50;4978478;28;8852;-61
2023/08/09 03:25:16;;;;;;;;;1.00;1.00;;;;;14.24;79.36;99567.50;4979016;28;8914;-61
2023/08/09 03:27:43;;;;;;;;;3.00;3.00;;;;;14.26;78.93;99573.56;4978272;28;8848;-60
2023/08/09 03:30:12;;;;;;;;;0.20;0.20;;;;;14.29;79.55;99565.19;4978311;28;8817;-61
2023/08/09 03:32:39;;;;;;;;;1.40;1.00;;;;;14.31;79.48;99568.56;4978649;28;8832;-61
2023/08/09 03:35:07;;;;;;;;;1.40;1.00;;;;;14.32;79.05;99562.19;4978370;28;8856;-61
2023/08/09 03:37:35;;;;;;;;;3.00;3.00;;;;;14.31;78.92;99569.41;4978378;28;8848;-61
2023/08/09 03:40:03;;;;;;;;;2.00;2.00;;;;;14.31;79.00;99576.59;4978068;28;8841;-61
2023/08/09 03:42:31;;;;;;;;;0.60;0.60;;;;;14.28;79.55;99579.59;4958914;28;8827;-61
2023/08/09 03:44:59;;;;;;;;;2.20;1.00;;;;;14.23;79.54;99581.88;4958662;28;8834;-61
2023/08/09 03:47:27;;;;;;;;;1.80;1.00;;;;;14.19;79.61;99600.09;4958845;28;8854;-60
2023/08/09 03:49:54;;;;;;;;;3.80;2.80;;;;;14.16;79.79;99597.72;4959022;28;8838;-58
2023/08/09 03:52:22;;;;;;;;;2.50;2.50;;;;;14.13;79.61;99598.00;4977444;28;8843;-59
2023/08/09 03:54:52;;;;;;;;;4.00;3.50;;;;;14.11;79.38;99593.81;4978445;28;9546;-61
2023/08/09 03:57:21;;;;;;;;;1.00;1.00;;;;;14.07;79.52;99592.41;4978245;28;8848;-61
2023/08/09 03:59:49;;;;;;;;;1.40;1.00;;;;;14.06;80.20;99598.78;4978330;28;8832;-59
2023/08/09 04:02:17;;;;;;;;;1.00;1.00;;;;;14.04;79.64;99598.91;4977345;28;8821;-60
2023/08/09 04:04:45;;;;;;;;;1.50;1.00;;;;;14.07;79.72;99609.34;4977976;28;9519;-61
2023/08/09 04:07:13;;;;;;;;;1.00;1.00;;;;;14.12;80.06;99616.91;4977548;28;8837;-60
2023/08/09 04:09:41;;;;;;;;;3.75;3.75;;;;;14.16;79.26;99612.91;4978004;28;8833;-59
2023/08/09 04:12:08;;;;;;;;;5.75;4.00;;;;;14.21;79.38;99616.84;4977283;28;8816;-58
2023/08/09 04:14:36;;;;;;;;;3.50;1.50;;;;;14.25;79.54;99623.59;4977772;28;9515;-59
2023/08/09 04:17:04;;;;;;;;;1.00;1.00;;;;;14.28;79.24;99628.63;4977086;28;8828;-61
2023/08/09 04:19:32;;;;;;;;;3.00;3.00;;;;;14.30;79.51;99621.31;4977795;28;8828;-58
2023/08/09 04:21:59;;;;;;;;;1.60;1.60;;;;;14.31;79.21;99631.03;4977446;28;8817;-60
2023/08/09 04:24:27;;;;;;;;;1.00;1.00;;;;;14.30;79.13;99636.53;4977070;28;8892;-58
2023/08/09 04:26:55;;;;;;;;;3.25;3.00;;;;;14.27;79.01;99632.31;4977435;28;8867;-60
2023/08/09 04:29:23;;;;;;;;;1.00;0.75;;;;;14.26;79.52;99632.50;4977173;28;8863;-61
2023/08/09 04:31:51;;;;;;;;;0.00;0.00;;;;;14.26;79.57;99646.69;4976861;28;8832;-61
2023/08/09 04:34:19;;;;;;;;;3.80;3.20;;;;;14.25;79.87;99638.81;4976907;28;8837;-61
2023/08/09 04:36:46;;;;;;;;;3.00;3.00;;;;;14.23;79.24;99646.16;4977010;28;8833;-61
2023/08/09 04:39:14;;;;;;;;;3.00;3.00;;;;;14.22;79.75;99647.16;4977402;28;8848;-61
2023/08/09 04:41:41;;;;;;;;;3.00;2.50;;;;;14.25;79.17;99654.88;4976868;28;8821;-60
2023/08/09 04:44:08;;;;;;;;;2.60;2.60;;;;;14.28;79.27;99654.59;4976708;28;8947;-60
2023/08/09 04:46:36;;;;;;;;;2.20;2.20;;;;;14.33;79.44;99650.47;4976528;28;8825;-60
2023/08/09 04:49:04;;;;;;;;;1.50;1.50;;;;;14.37;79.16;99651.00;4976393;28;8847;-60
2023/08/09 04:51:32;;;;;;;;;3.50;3.00;;;;;14.41;79.10;99661.25;4975113;28;8845;-60
2023/08/09 04:53:59;;;;;;;;;4.50;4.50;;;;;14.45;78.79;99657.28;4975712;28;8852;-61
2023/08/09 04:56:27;;;;;;;;;3.00;3.00;;;;;14.49;79.06;99668.53;4975483;28;8871;-61
2023/08/09 04:58:54;;;;;;;;;4.50;3.75;;;;;14.53;78.68;99668.06;4976032;28;8832;-60
2023/08/09 05:01:22;;;;;;;;;4.75;3.50;;;;;14.57;78.59;99673.97;4974666;28;8839;-59
2023/08/09 05:03:50;;;;;;;;;6.00;4.00;;;;;14.60;78.56;99676.31;4975071;28;8902;-60
2023/08/09 05:06:17;;;;;;;;;4.00;4.00;;;;;14.64;78.92;99670.50;4975612;28;8821;-60
2023/08/09 05:08:45;;;;;;;;;8.50;7.00;;;;;14.69;77.95;99668.22;4975179;28;8871;-59
2023/08/09 05:11:13;;;;;;;;;8.50;5.50;;;;;14.73;78.58;99664.22;4974596;28;8847;-59
2023/08/09 05:13:41;;;;;;;;;5.00;4.50;;;;;14.77;78.62;99662.91;4975441;28;8821;-61
2023/08/09 05:16:08;;;;;;;;;3.00;3.00;;;;;14.81;77.94;99669.63;4976095;28;8860;-61
2023/08/09 05:18:36;;;;;;;;;7.25;6.00;;;;;14.86;78.60;99677.25;4975812;28;8840;-61
2023/08/09 05:21:04;;;;;;;;;9.25;8.75;;;;;14.91;78.50;99674.91;4976094;28;8851;-60
2023/08/09 05:23:31;;;;;;;;;7.00;6.75;;;;;14.92;78.00;99674.78;4976214;28;9541;-59
2023/08/09 05:25:59;;;;;;;;;6.00;6.00;;;;;14.95;78.40;99676.31;4975359;28;8970;-61
2023/08/09 05:28:27;;;;;;;;;8.00;6.50;;;;;14.98;78.40;99681.34;4978999;28;8844;-59
2023/08/09 05:30:54;;;;;;;;;6.25;6.25;;;;;15.03;77.82;99685.22;4979502;28;8829;-59
2023/08/09 05:33:22;;;;;;;;;4.50;4.00;;;;;15.11;78.06;99689.81;4979046;28;8833;-61
2023/08/09 05:35:50;;;;;;;;;10.00;9.50;;;;;15.20;77.61;99689.75;4979436;28;8840;-59
2023/08/09 05:38:17;;;;;;;;;11.50;8.50;;;;;15.32;77.26;99691.19;4978472;28;8860;-61
2023/08/09 05:40:45;;;;;;;;;9.75;8.50;;;;;15.41;76.88;99690.22;4977287;28;8836;-60
2023/08/09 05:43:13;;;;;;;;;8.60;8.20;;;;;15.44;76.85;99692.59;4977337;28;8883;-61
2023/08/09 05:45:42;;;;;;;;;10.80;10.40;;;;;15.42;77.00;99696.44;4976965;28;8847;-61
2023/08/09 05:48:10;;;;;;;;;12.00;9.50;;;;;15.42;77.14;99691.94;4976498;28;8890;-60
2023/08/09 05:50:37;;;;;;;;;8.20;6.80;;;;;15.41;77.30;99700.13;4974615;28;8821;-60
2023/08/09 05:53:05;;;;;;;;;9.40;9.20;;;;;15.41;77.20;99705.50;4954518;28;8894;-59
2023/08/09 05:55:33;;;;;;;;;12.75;10.00;;;;;15.40;77.70;99712.69;4952715;28;9222;-61
2023/08/09 05:58:01;;;;;;;;;11.80;11.40;;;;;15.40;77.41;99725.28;4953332;28;8855;-62
2023/08/09 06:00:29;;;;;;;;;12.60;9.20;;;;;15.38;77.48;99728.13;4954256;28;8848;-60
2023/08/09 06:02:57;;;;;;;;;11.60;9.40;;;;;15.40;78.03;99733.34;4955930;28;8994;-62
2023/08/09 06:05:25;;;;;;;;;7.80;6.40;;;;;15.44;77.61;99740.06;4955073;28;9265;-61
2023/08/09 06:07:53;;;;;;;;;16.00;10.00;;;;;15.53;77.75;99744.47;4955451;28;8896;-61
2023/08/09 06:10:21;;;;;;;;;13.60;13.00;;;;;15.61;77.42;99749.91;4955853;28;8875;-61
2023/08/09 06:12:49;;;;;;;;;12.00;11.60;;;;;15.65;77.21;99753.94;4956312;28;8852;-60
2023/08/09 06:15:17;;;;;;;;;7.40;6.40;;;;;15.67;77.45;99754.63;4956159;28;8885;-62
2023/08/09 06:17:45;;;;;;;;;9.40;8.20;;;;;15.74;77.08;99753.00;4957058;28;8843;-62
2023/08/09 06:20:13;;;;;;;;;11.20;10.80;;;;;15.84;76.75;99757.25;4957248;28;9553;-62
2023/08/09 06:22:41;;;;;;;;;10.40;9.60;;;;;15.98;76.34;99755.81;4958282;28;9633;-59
2023/08/09 06:25:09;;;;;;;;;9.60;9.20;;;;;16.10;76.35;99754.53;4958060;28;9637;-62
2023/08/09 06:27:36;;;;;;;;;8.60;8.60;;;;;16.19;76.35;99752.53;4956748;28;8907;-60
2023/08/09 06:30:04;;;;;;;;;7.80;6.40;;;;;16.24;76.22;99754.75;4956688;28;8875;-59
2023/08/09 06:32:32;;;;;;;;;9.20;8.20;;;;;16.23;76.02;99752.25;4956490;28;8894;-60
2023/08/09 06:35:04;;;;;;;;;12.80;12.00;;;;;16.20;76.49;99759.59;4957740;28;8856;-59
2023/08/09 06:37:35;;;;;;;;;10.80;9.60;;;;;16.19;76.28;99757.91;4957723;28;8848;-61
2023/08/09 06:40:06;;;;;;;;;7.00;7.00;;;;;16.20;76.30;99764.16;4956589;28;8852;-61
2023/08/09 06:42:34;;;;;;;;;13.00;10.00;;;;;16.23;76.35;99763.00;4958297;28;8864;-60
2023/08/09 06:45:03;;;;;;;;;12.60;10.40;;;;;16.23;76.51;99770.03;4957175;28;8978;-62
2023/08/09 06:47:31;;;;;;;;;11.20;8.60;;;;;16.14;76.48;99775.53;4958280;28;8858;-61
2023/08/09 06:50:00;;;;;;;;;10.00;9.60;;;;;16.03;76.75;99775.84;4957010;28;8926;-60
2023/08/09 06:52:28;;;;;;;;;13.00;12.00;;;;;16.00;77.17;99778.00;4971760;28;8847;-62
2023/08/09 06:54:56;;;;;;;;;10.00;10.00;;;;;15.92;77.16;99777.97;4976843;28;8836;-60
2023/08/09 06:57:25;;;;;;;;;7.00;6.60;;;;;15.84;77.16;99783.28;4977277;28;8926;-60
2023/08/09 06:59:53;;;;;;;;;7.80;7.80;;;;;15.75;77.75;99784.22;4976670;28;8944;-62
2023/08/09 07:02:21;;;;;;;;;9.80;7.80;;;;;15.71;77.71;99780.19;4975318;28;8852;-62
2023/08/09 07:04:49;;;;;;;;;9.00;8.20;;;;;15.73;77.82;99778.16;4975522;28;8844;-61
2023/08/09 07:07:17;;;;;;;;;13.00;13.00;;;;;15.89;76.96;99786.31;4975832;28;8840;-61
2023/08/09 07:09:45;;;;;;;;;8.20;7.00;;;;;16.13;76.47;99789.13;4975094;28;8841;-60
2023/08/09 07:12:13;;;;;;;;;12.40;12.00;;;;;16.41;75.88;99789.63;4975019;28;8840;-60
2023/08/09 07:14:41;;;;;;;;;9.40;8.60;;;;;16.69;75.03;99791.06;4973337;28;8891;-59
2023/08/09 07:17:08;;;;;;;;;12.00;10.00;;;;;16.85;74.91;99788.41;4973045;28;9643;-62
2023/08/09 07:19:36;;;;;;;;;7.00;7.00;;;;;16.82;74.73;99791.44;4973929;28;8840;-60
2023/08/09 07:22:04;;;;;;;;;8.40;6.80;;;;;16.72;75.12;99795.28;4974613;28;8833;-62
2023/08/09 07:24:33;;;;;;;;;12.20;8.20;;;;;16.57;75.33;99803.09;4975498;28;9566;-60
2023/08/09 07:27:01;;;;;;;;;10.80;8.20;;;;;16.46;76.26;99807.94;4975196;28;8959;-60
2023/08/09 07:29:28;;;;;;;;;10.00;10.00;;;;;16.39;76.43;99810.44;4975217;28;8832;-59
2023/08/09 07:31:56;;;;;;;;;13.80;11.60;;;;;16.45;75.98;99819.69;4975816;28;8836;-61
2023/08/09 07:34:24;;;;;;;;;11.60;10.40;;;;;16.57;75.36;99821.94;4976235;28;8936;-59
2023/08/09 07:36:52;;;;;;;;;10.60;9.80;;;;;16.57;75.84;99818.41;4975726;28;8883;-59
2023/08/09 07:39:22;;;;;;;;;14.00;9.60;;;;;16.43;75.95;99830.63;4976450;28;8871;-60
2023/08/09 07:41:50;;;;;;;;;9.20;8.20;;;;;16.41;76.42;99829.94;4976276;28;8836;-60
2023/08/09 07:44:17;;;;;;;;;9.60;7.00;;;;;16.44;76.26;99839.53;4976063;28;8864;-60
2023/08/09 07:46:45;;;;;;;;;9.80;9.80;;;;;16.49;76.05;99834.53;4976424;28;8837;-59
2023/08/09 07:49:14;;;;;;;;;6.00;6.00;;;;;16.58;75.96;99834.41;4975540;28;8844;-59
2023/08/09 07:51:42;;;;;;;;;7.00;7.00;;;;;16.66;75.61;99829.03;4974803;28;8974;-59
2023/08/09 07:54:09;;;;;;;;;9.00;6.40;;;;;16.70;75.21;99835.75;4975308;28;8847;-60
2023/08/09 07:56:37;;;;;;;;;6.00;6.00;;;;;16.83;75.39;99835.28;4975276;28;8841;-60
2023/08/09 07:59:05;;;;;;;;;6.60;6.00;;;;;16.98;74.69;99839.88;4974752;28;8832;-60
2023/08/09 08:01:33;;;;;;;;;4.40;4.40;;;;;17.14;74.45;99853.38;4975726;28;8837;-60
2023/08/09 08:04:01;;;;;;;;;9.40;8.20;;;;;17.25;74.23;99855.72;4975761;28;8832;-59
2023/08/09 08:06:29;;;;;;;;;7.40;7.40;;;;;17.30;73.98;99847.19;4975755;28;8840;-62
2023/08/09 08:08:57;;;;;;;;;7.40;6.80;;;;;17.30;74.15;99853.38;4973353;28;8903;-59
2023/08/09 08:11:25;;;;;;;;;4.80;4.80;;;;;17.35;74.29;99845.66;4973912;28;8824;-60
2023/08/09 08:13:53;;;;;;;;;4.00;4.00;;;;;17.42;73.90;99851.22;4973957;28;8844;-61
2023/08/09 08:16:21;;;;;;;;;4.40;4.40;;;;;17.47;73.54;99855.09;4974760;28;8907;-60
2023/08/09 08:18:49;;;;;;;;;4.40;4.00;;;;;17.52;73.40;99862.66;4974009;28;9547;-60
2023/08/09 08:21:16;;;;;;;;;4.80;4.80;;;;;17.59;73.12;99861.84;4975051;28;8908;-60
2023/08/09 08:23:45;;;;;;;;;6.60;6.20;;;;;17.68;73.26;99868.09;4975267;28;8959;-59
2023/08/09 08:26:13;;;;;;;;;9.00;8.20;;;;;17.78;73.01;99857.97;4974680;28;8906;-60
2023/08/09 08:28:41;;;;;;;;;8.20;7.00;;;;;17.95;72.95;99865.88;4974749;28;8852;-60
2023/08/09 08:31:09;;;;;;;;;9.80;9.20;;;;;18.09;72.01;99859.78;4974370;28;8915;-59
2023/08/09 08:33:37;;;;;;;;;8.40;8.20;;;;;18.19;72.37;99868.53;4974824;28;8975;-60
2023/08/09 08:36:05;;;;;;;;;9.00;6.80;;;;;18.28;72.32;99867.47;4975386;28;8934;-60
2023/08/09 08:38:53;;;;;;;;;7.80;7.80;;;;;18.33;71.87;99858.91;4973527;28;8962;-60
2023/08/09 08:41:20;;;;;;;;;6.00;4.00;;;;;18.38;71.62;99862.75;4974347;28;8855;-60
2023/08/09 08:43:49;;;;;;;;;6.00;6.00;;;;;18.47;71.92;99867.13;4975156;28;8837;-62
2023/08/09 08:46:17;;;;;;;;;4.00;4.00;;;;;18.57;71.29;99861.50;4975263;28;8844;-60
2023/08/09 08:48:46;;;;;;;;;8.60;6.80;;;;;18.60;71.29;99871.97;4974276;28;8981;-60
2023/08/09 08:51:13;;;;;;;;;7.80;6.80;;;;;18.62;71.13;99873.47;4974415;28;9496;-60
2023/08/09 08:53:41;;;;;;;;;6.80;6.20;;;;;18.68;71.03;99863.84;4974681;28;8824;-60
2023/08/09 08:56:09;;;;;;;;;4.80;4.00;;;;;18.77;71.04;99855.53;4973714;28;8870;-62
2023/08/09 08:58:37;;;;;;;;;5.40;5.20;;;;;18.86;71.15;99854.47;4973694;28;9193;-60
2023/08/09 09:01:05;;;;;;;;;6.00;4.40;;;;;18.96;70.64;99862.34;4973630;28;8828;-61
2023/08/09 09:03:34;;;;;;;;;3.40;3.40;;;;;19.03;70.52;99866.03;4972943;28;9620;-60
2023/08/09 09:06:02;;;;;;;;;6.40;5.20;;;;;19.07;70.21;99857.41;4972256;28;8837;-62
2023/08/09 09:08:30;;;;;;;;;6.00;6.00;;;;;19.02;70.40;99864.31;4973011;28;8856;-60
2023/08/09 09:10:59;;;;;;;;;6.00;4.00;;;;;19.05;70.75;99862.13;4974258;28;8844;-60
2023/08/09 09:13:26;;;;;;;;;6.00;6.00;;;;;19.13;70.27;99869.34;4971637;28;9222;-62
2023/08/09 09:15:56;;;;;;;;;7.60;6.60;;;;;19.22;70.00;99862.91;4972343;28;9490;-61
2023/08/09 09:18:24;;;;;;;;;6.80;5.60;;;;;19.33;70.00;99866.03;4972934;28;8832;-60
2023/08/09 09:20:52;;;;;;;;;6.20;6.20;;;;;19.41;69.56;99863.25;4973195;28;8840;-60
2023/08/09 09:23:20;;;;;;;;;9.20;7.20;;;;;19.49;69.62;99865.06;4973679;28;8848;-60
2023/08/09 09:25:48;;;;;;;;;4.00;4.00;;;;;19.61;69.57;99872.56;4974521;28;8843;-62
2023/08/09 09:28:18;;;;;;;;;4.20;3.40;;;;;19.71;69.09;99869.63;4974802;28;8860;-60
2023/08/09 09:30:46;;;;;;;;;5.80;5.80;;;;;19.82;68.96;99872.75;4974648;28;8931;-60
2023/08/09 09:33:16;;;;;;;;;4.00;3.40;;;;;19.98;68.91;99874.44;4976020;28;8849;-60
2023/08/09 09:35:44;;;;;;;;;5.20;5.20;;;;;20.10;67.95;99867.59;4975241;28;8861;-61
2023/08/09 09:38:11;;;;;;;;;5.60;5.60;;;;;20.27;68.17;99869.97;4975005;28;8852;-62
2023/08/09 09:40:40;;;;;;;;;7.00;7.00;;;;;20.39;67.85;99873.06;4974426;28;8899;-60
2023/08/09 09:43:08;;;;;;;;;4.40;4.40;;;;;20.53;67.58;99877.59;4974271;28;8844;-60
2023/08/09 09:45:37;;;;;;;;;4.80;4.00;;;;;20.80;66.52;99880.50;4972993;28;8922;-59
2023/08/09 09:48:05;;;;;;;;;3.00;2.40;;;;;21.12;66.47;99880.09;4973088;28;8958;-60
2023/08/09 09:50:34;;;;;;;;;4.00;4.00;;;;;21.30;65.89;99888.63;4972789;28;8890;-62
2023/08/09 09:53:04;;;;;;;;;7.20;7.20;;;;;21.50;65.76;99884.25;4973611;28;9622;-60
2023/08/09 09:55:32;;;;;;;;;4.60;4.20;;;;;21.58;65.39;99885.00;4974302;28;8848;-60
2023/08/09 09:58:00;;;;;;;;;6.60;5.00;;;;;21.67;65.26;99885.72;4973487;28;8837;-62
2023/08/09 10:00:28;;;;;;;;;4.80;4.80;;;;;21.68;65.43;99882.81;4974173;28;8820;-59
2023/08/09 10:02:56;;;;;;;;;4.80;4.80;;;;;21.71;65.33;99889.72;4973796;28;8840;-61
2023/08/09 10:05:24;;;;;;;;;6.20;4.80;;;;;22.02;64.95;99890.22;4972646;28;8891;-61
2023/08/09 10:07:52;;;;;;;;;6.60;5.00;;;;;22.35;64.10;99896.72;4972270;28;8841;-60
2023/08/09 10:10:26;;;;;;;;;5.00;4.80;;;;;22.61;64.35;99907.81;4972792;28;8856;-60
2023/08/09 10:12:54;;;;;;;;;4.20;1.00;;;;;22.89;63.60;99906.69;4972205;28;8927;-60
2023/08/09 10:15:23;;;;;;;;;6.20;4.20;;;;;23.40;62.52;99905.28;4975509;28;8833;-60
2023/08/09 10:17:51;;;;;;;;;2.40;2.00;;;;;24.03;61.20;99898.47;4976386;28;8855;-61
2023/08/09 10:20:19;;;;;;;;;5.00;5.00;;;;;24.09;61.29;99911.25;4975638;28;8864;-61
2023/08/09 10:22:47;;;;;;;;;1.60;1.60;;;;;23.80;61.95;99915.19;4975893;28;8871;-60
2023/08/09 10:25:15;;;;;;;;;4.60;4.60;;;;;23.58;61.99;99913.69;4975781;28;8840;-57
2023/08/09 10:27:43;;;;;;;;;4.00;4.00;;;;;23.80;62.06;99922.50;4976595;28;9542;-58
2023/08/09 10:30:13;;;;;;;;;2.00;2.00;;;;;23.92;61.55;99918.16;4975851;28;8919;-57
2023/08/09 10:32:41;;;;;;;;;3.60;2.00;;;;;24.01;61.24;99920.47;4973616;28;8829;-59
2023/08/09 10:35:11;;;;;;;;;3.80;2.80;;;;;24.46;60.56;99916.91;4975122;28;8832;-60
2023/08/09 10:37:41;;;;;;;;;4.00;4.00;;;;;24.73;59.78;99923.19;4976900;28;9524;-59
2023/08/09 10:40:10;;;;;;;;;6.80;6.00;;;;;24.75;60.25;99929.25;4977356;28;9491;-58
2023/08/09 10:42:38;;;;;;;;;4.20;3.80;;;;;24.59;60.14;99924.25;4976965;28;8916;-60
2023/08/09 10:45:08;;;;;;;;;5.00;4.00;;;;;24.47;60.64;99928.63;4976892;28;8848;-59
2023/08/09 10:47:36;;;;;;;;;5.00;4.20;;;;;24.39;61.12;99923.41;4977579;28;8857;-61
2023/08/09 10:50:04;;;;;;;;;5.40;5.00;;;;;24.30;60.77;99916.50;4976373;28;8995;-62
2023/08/09 10:52:32;;;;;;;;;2.80;2.80;;;;;24.10;61.26;99912.94;4975834;28;8867;-60
2023/08/09 10:55:00;;;;;;;;;4.60;2.60;;;;;23.95;61.49;99921.31;4976229;28;8897;-60
2023/08/09 10:57:28;;;;;;;;;4.60;3.40;;;;;24.02;61.69;99915.84;4976283;28;8849;-60
2023/08/09 10:59:56;;;;;;;;;3.20;3.20;;;;;24.20;60.71;99916.09;4977004;28;8840;-60
2023/08/09 11:02:24;;;;;;;;;2.60;2.60;;;;;24.23;60.74;99912.94;4976620;28;8850;-60
2023/08/09 11:04:52;;;;;;;;;5.20;5.00;;;;;24.01;61.56;99906.03;4976056;28;8841;-58
2023/08/09 11:07:20;;;;;;;;;4.20;4.20;;;;;23.74;62.08;99907.03;4976374;28;8829;-58
2023/08/09 11:09:48;;;;;;;;;5.60;5.20;;;;;23.57;61.99;99913.88;4975374;28;8860;-58
2023/08/09 11:12:17;;;;;;;;;5.00;4.00;;;;;23.49;62.74;99911.34;4974888;28;8849;-61
2023/08/09 11:14:45;;;;;;;;;4.60;4.00;;;;;23.30;63.16;99903.97;4974968;28;8836;-60
2023/08/09 11:17:13;;;;;;;;;4.00;3.20;;;;;23.10;63.43;99919.34;4974584;28;8927;-61
2023/08/09 11:19:41;;;;;;;;;5.60;5.40;;;;;22.94;63.93;99925.97;4974241;28;8998;-60
2023/08/09 11:22:09;;;;;;;;;2.00;2.00;;;;;22.86;63.79;99917.97;4972803;28;9554;-60
2023/08/09 11:24:36;;;;;;;;;3.60;3.60;;;;;22.85;63.35;99926.31;4973995;28;8825;-61
2023/08/09 11:27:04;;;;;;;;;2.00;2.00;;;;;22.91;63.51;99928.25;4974357;28;8861;-60
2023/08/09 11:29:32;;;;;;;;;5.60;5.00;;;;;22.86;63.11;99930.72;4974749;28;8832;-60
2023/08/09 11:32:01;;;;;;;;;6.00;5.60;;;;;22.73;63.26;99938.78;4974990;28;8845;-60
2023/08/09 11:34:29;;;;;;;;;6.00;5.40;;;;;22.53;63.91;99943.25;4975548;28;8852;-60
2023/08/09 11:36:57;;;;;;;;;5.40;5.40;;;;;22.43;63.72;99945.47;4975274;28;8912;-60
2023/08/09 11:39:25;;;;;;;;;6.40;5.40;;;;;22.38;64.04;99946.03;4974883;28;9749;-60
2023/08/09 11:41:53;;;;;;;;;4.00;4.00;;;;;22.28;64.21;99936.53;4974567;28;8855;-60
2023/08/09 11:44:22;;;;;;;;;7.20;5.80;;;;;22.18;64.21;99938.75;4974967;28;8946;-60